createdAt,value
2022-08-12T00:00:22.277Z,1.52
2022-08-12T00:03:07.887Z,1.33
2022-08-12T00:06:01.839Z,1.40
2022-08-12T00:08:52.536Z,1.55
2022-08-12T00:11:38.425Z,1.20
2022-08-12T00:14:26.040Z,1.20
2022-08-12T00:17:12.640Z,1.10
2022-08-12T00:19:58.535Z,1.15
2022-08-12T00:22:44.504Z,1.00
2022-08-12T00:26:01.312Z,1.17
2022-08-12T00:28:36.289Z,1.25
2022-08-12T00:31:23.709Z,0.95
2022-08-12T00:34:09.349Z,1.20
2022-08-12T00:36:58.437Z,1.17
2022-08-12T00:39:48.758Z,1.40
2022-08-12T00:42:19.244Z,1.00
2022-08-12T00:44:48.364Z,1.02
2022-08-12T00:47:24.793Z,1.42
2022-08-12T00:49:55.874Z,1.30
2022-08-12T00:52:24.932Z,1.35
2022-08-12T00:54:57.244Z,1.17
2022-08-12T00:57:27.511Z,1.73
2022-08-12T00:59:58.225Z,1.25
2022-08-12T01:02:29.948Z,1.42
2022-08-12T01:05:18.016Z,1.35
2022-08-12T01:08:05.431Z,1.33
2022-08-12T01:10:54.248Z,0.95
2022-08-12T01:13:22.844Z,1.33
2022-08-12T01:15:53.446Z,1.10
2022-08-12T01:18:24.789Z,1.10
2022-08-12T01:21:04.912Z,1.27
2022-08-12T01:24:29.745Z,1.50
2022-08-12T01:26:56.335Z,1.30
2022-08-12T01:29:32.932Z,1.00
2022-08-12T01:32:06.419Z,1.08
2022-08-12T01:34:38.714Z,1.20
2022-08-12T01:37:08.918Z,1.23
2022-08-12T01:40:31.296Z,1.10
2022-08-12T01:42:34.548Z,1.65
2022-08-12T01:45:04.241Z,1.33
2022-08-12T01:47:43.726Z,1.38
2022-08-12T01:50:22.483Z,1.35
2022-08-12T01:52:59.190Z,1.33
2022-08-12T01:55:32.625Z,1.52
2022-08-12T01:58:13.181Z,1.55
2022-08-12T02:00:55.458Z,1.17
2022-08-12T02:03:59.833Z,0.98
2022-08-12T02:06:51.426Z,0.88
2022-08-12T02:09:47.476Z,1.27
2022-08-12T02:12:28.677Z,1.17
2022-08-12T02:15:13.006Z,1.17
2022-08-12T02:17:59.831Z,1.30
2022-08-12T02:20:51.682Z,0.80
2022-08-12T02:23:25.581Z,1.30
2022-08-12T02:25:57.087Z,1.10
2022-08-12T02:28:25.680Z,1.45
2022-08-12T02:30:56.324Z,1.10
2022-08-12T02:33:25.522Z,1.17
2022-08-12T02:35:55.581Z,1.33
2022-08-12T02:38:27.519Z,1.15
2022-08-12T02:40:57.196Z,1.00
2022-08-12T02:43:32.029Z,1.25
2022-08-12T02:46:09.299Z,0.90
2022-08-12T02:48:49.129Z,1.13
2022-08-12T02:51:20.709Z,1.10
2022-08-12T02:54:04.911Z,1.30
2022-08-12T02:56:37.146Z,1.20
2022-08-12T02:59:05.858Z,1.27
2022-08-12T03:01:42.566Z,1.50
2022-08-12T03:04:24.550Z,1.25
2022-08-12T03:07:01.342Z,1.20
2022-08-12T03:09:39.081Z,1.38
2022-08-12T03:12:25.132Z,1.15
2022-08-12T03:14:55.614Z,1.25
2022-08-12T03:17:31.390Z,1.15
2022-08-12T03:20:10.274Z,1.63
2022-08-12T03:22:40.846Z,1.00
2022-08-12T03:25:17.371Z,1.33
2022-08-12T03:27:55.703Z,1.13
2022-08-12T03:30:26.047Z,1.20
2022-08-12T03:32:57.678Z,1.10
2022-08-12T03:35:40.218Z,1.38
2022-08-12T03:38:16.179Z,1.13
2022-08-12T03:41:13.356Z,1.00
2022-08-12T03:44:10.833Z,2.08
2022-08-12T03:47:00.855Z,1.08
2022-08-12T03:49:48.298Z,1.15
2022-08-12T03:52:33.696Z,1.05
2022-08-12T03:55:19.165Z,1.30
2022-08-12T03:58:08.037Z,1.15
2022-08-12T04:00:37.751Z,1.25
2022-08-12T04:03:26.248Z,1.30
2022-08-12T04:05:57.102Z,1.25
2022-08-12T04:08:27.275Z,1.75
2022-08-12T04:11:13.639Z,1.15
2022-08-12T04:13:42.082Z,1.60
2022-08-12T04:16:14.619Z,1.08
2022-08-12T04:18:43.604Z,1.58
2022-08-12T04:21:13.257Z,1.80
2022-08-12T04:23:48.243Z,1.60
2022-08-12T04:26:17.467Z,1.45
2022-08-12T04:28:45.987Z,1.33
2022-08-12T04:31:14.569Z,1.40
2022-08-12T04:33:44.284Z,1.35
2022-08-12T04:36:14.348Z,1.50
2022-08-12T04:38:44.199Z,1.30
2022-08-12T04:41:13.269Z,1.75
2022-08-12T04:44:00.528Z,1.42
2022-08-12T04:46:33.526Z,1.25
2022-08-12T04:49:03.755Z,1.48
2022-08-12T04:51:34.237Z,1.20
2022-08-12T04:54:04.755Z,1.65
2022-08-12T04:56:35.468Z,1.50
2022-08-12T04:59:04.091Z,1.55
2022-08-12T05:01:32.953Z,1.65
2022-08-12T05:04:02.927Z,1.30
2022-08-12T05:06:32.823Z,1.27
2022-08-12T05:09:01.443Z,1.42
2022-08-12T05:11:30.156Z,1.45
2022-08-12T05:14:00.979Z,1.48
2022-08-12T05:16:34.277Z,1.65
2022-08-12T05:19:05.373Z,2.05
2022-08-12T05:21:42.881Z,1.55
2022-08-12T05:24:11.192Z,1.42
2022-08-12T05:26:39.462Z,1.70
2022-08-12T05:30:06.892Z,1.67
2022-08-12T05:32:00.960Z,1.60
2022-08-12T05:34:29.893Z,1.80
2022-08-12T05:37:00.268Z,1.90
2022-08-12T05:39:28.615Z,1.42
2022-08-12T05:41:57.853Z,1.40
2022-08-12T05:44:26.082Z,1.85
2022-08-12T05:46:54.321Z,1.63
2022-08-12T05:49:22.755Z,1.50
2022-08-12T05:51:51.061Z,1.90
2022-08-12T05:54:31.026Z,1.58
2022-08-12T05:57:11.593Z,1.60
2022-08-12T05:59:40.002Z,1.70
2022-08-12T06:02:13.720Z,1.92
2022-08-12T06:04:42.177Z,1.98
2022-08-12T06:07:59.518Z,2.30
2022-08-12T06:10:03.931Z,1.98
2022-08-12T06:12:32.198Z,2.03
2022-08-12T06:15:00.479Z,1.77
2022-08-12T06:17:31.072Z,1.98
2022-08-12T06:20:27.355Z,1.70
2022-08-12T06:22:48.890Z,1.42
2022-08-12T06:25:21.847Z,1.70
2022-08-12T06:28:07.840Z,2.25
2022-08-12T06:30:39.168Z,1.88
2022-08-12T06:33:21.958Z,2.03
2022-08-12T06:35:52.317Z,1.98
2022-08-12T06:38:27.098Z,1.92
2022-08-12T06:41:16.561Z,1.45
2022-08-12T06:44:05.725Z,1.55
2022-08-12T06:46:33.567Z,1.70
2022-08-12T06:49:02.694Z,1.80
2022-08-12T06:51:33.008Z,1.65
2022-08-12T06:54:02.537Z,1.80
2022-08-12T06:57:02.605Z,1.80
2022-08-12T06:59:21.497Z,2.38
2022-08-12T07:01:51.669Z,1.33
2022-08-12T07:04:38.366Z,1.92
2022-08-12T07:07:08.716Z,1.95
2022-08-12T07:10:01.583Z,1.77
2022-08-12T07:12:28.218Z,1.50
2022-08-12T07:14:57.338Z,2.00
2022-08-12T07:17:25.752Z,2.22
2022-08-12T07:19:57.039Z,2.05
2022-08-12T07:22:29.358Z,1.90
2022-08-12T07:25:11.410Z,1.80
2022-08-12T07:27:42.801Z,1.40
2022-08-12T07:30:12.557Z,1.55
2022-08-12T07:32:40.944Z,2.13
2022-08-12T07:35:10.004Z,1.60
2022-08-12T07:37:41.968Z,2.40
2022-08-12T07:40:12.292Z,1.83
2022-08-12T07:42:44.171Z,1.95
2022-08-12T07:45:13.471Z,1.75
2022-08-12T07:47:43.381Z,1.77
2022-08-12T07:50:12.883Z,1.58
2022-08-12T07:52:43.878Z,2.17
2022-08-12T07:55:13.759Z,1.50
2022-08-12T07:57:57.817Z,1.65
2022-08-12T08:00:27.470Z,2.03
2022-08-12T08:02:56.213Z,1.73
2022-08-12T08:05:26.599Z,1.50
2022-08-12T08:07:55.686Z,2.25
2022-08-12T08:10:23.869Z,1.90
2022-08-12T08:12:56.058Z,2.13
2022-08-12T08:15:44.418Z,2.17
2022-08-12T08:18:25.854Z,2.22
2022-08-12T08:20:56.209Z,1.83
2022-08-12T08:23:46.438Z,1.70
2022-08-12T08:26:16.117Z,1.60
2022-08-12T08:28:45.826Z,1.98
2022-08-12T08:31:15.113Z,1.80
2022-08-12T08:34:05.416Z,1.77
2022-08-12T08:36:31.521Z,1.75
2022-08-12T08:38:59.815Z,1.40
2022-08-12T08:42:17.010Z,2.13
2022-08-12T08:44:38.426Z,2.13
2022-08-12T08:47:07.378Z,1.65
2022-08-12T08:49:37.352Z,1.88
2022-08-12T08:52:07.484Z,1.92
2022-08-12T08:54:37.614Z,1.27
2022-08-12T08:57:08.254Z,1.42
2022-08-12T08:59:37.996Z,1.27
2022-08-12T09:02:07.565Z,1.77
2022-08-12T09:05:14.488Z,1.27
2022-08-12T09:07:51.683Z,1.60
2022-08-12T09:13:29.193Z,1.55
2022-08-12T09:16:13.717Z,1.60
2022-08-12T09:18:43.556Z,1.40
2022-08-12T09:21:12.662Z,2.00
2022-08-12T09:24:00.666Z,2.47
2022-08-12T09:26:31.256Z,1.42
2022-08-12T09:29:02.603Z,1.70
2022-08-12T09:32:04.292Z,1.67
2022-08-12T09:34:33.783Z,1.60
2022-08-12T09:37:20.287Z,1.50
2022-08-12T09:40:05.967Z,1.85
2022-08-12T09:43:16.018Z,1.60
2022-08-12T09:46:07.082Z,1.60
2022-08-12T09:48:39.367Z,1.40
2022-08-12T09:51:10.854Z,1.65
2022-08-12T09:54:08.927Z,1.67
2022-08-12T09:57:03.182Z,1.98
2022-08-12T10:00:15.232Z,1.60
2022-08-12T10:02:44.049Z,1.40
2022-08-12T10:05:09.192Z,1.73
2022-08-12T10:07:41.857Z,1.63
2022-08-12T10:10:24.658Z,1.60
2022-08-12T10:13:34.848Z,1.33
2022-08-12T10:16:06.369Z,1.58
2022-08-12T10:18:51.805Z,1.48
2022-08-12T10:21:23.951Z,1.55
2022-08-12T10:24:05.198Z,1.38
2022-08-12T10:26:52.553Z,1.13
2022-08-12T10:30:37.613Z,1.42
2022-08-12T10:32:44.546Z,1.40
2022-08-12T10:35:16.618Z,1.20
2022-08-12T10:38:33.599Z,1.70
2022-08-12T10:40:55.618Z,1.30
2022-08-12T10:43:54.182Z,1.52
2022-08-12T10:46:30.444Z,1.33
2022-08-12T10:49:06.553Z,1.55
2022-08-12T10:52:05.236Z,1.58
2022-08-12T10:54:42.806Z,1.40
2022-08-12T10:57:17.916Z,1.67
2022-08-12T11:00:30.737Z,1.90
2022-08-12T11:04:23.365Z,1.58
2022-08-12T11:07:06.727Z,1.45
2022-08-12T11:08:42.008Z,1.58
2022-08-12T11:12:08.492Z,1.52
2022-08-12T11:14:13.056Z,1.58
2022-08-12T11:17:34.358Z,1.70
2022-08-12T11:19:46.516Z,1.60
2022-08-12T11:22:14.694Z,1.40
2022-08-12T11:24:51.397Z,1.40
2022-08-12T11:27:21.569Z,1.10
2022-08-12T11:30:01.562Z,1.50
2022-08-12T11:32:39.169Z,1.00
2022-08-12T11:35:11.638Z,1.30
2022-08-12T11:37:58.925Z,1.40
2022-08-12T11:40:28.583Z,1.40
2022-08-12T11:43:17.924Z,1.48
2022-08-12T11:45:52.936Z,1.08
2022-08-12T11:48:27.055Z,1.65
2022-08-12T11:50:55.944Z,1.05
2022-08-12T11:53:57.661Z,1.17
2022-08-12T11:56:12.548Z,1.50
2022-08-12T12:02:01.964Z,1.40
2022-08-12T12:04:29.109Z,1.70
2022-08-12T12:07:06.987Z,2.08
2022-08-12T12:09:42.868Z,1.85
2022-08-12T12:12:22.346Z,1.80
2022-08-12T12:14:54.958Z,1.50
2022-08-12T12:17:24.481Z,1.45
2022-08-12T12:19:53.240Z,1.30
2022-08-12T12:22:23.205Z,2.25
2022-08-12T12:24:55.484Z,1.70
2022-08-12T12:28:04.197Z,2.60
2022-08-12T12:30:25.229Z,1.48
2022-08-12T12:32:58.915Z,1.45
2022-08-12T12:36:17.589Z,1.70
2022-08-12T12:38:17.538Z,1.25
2022-08-12T12:40:50.410Z,2.00
2022-08-12T12:43:28.881Z,1.50
2022-08-12T12:46:08.982Z,1.10
2022-08-12T12:48:38.834Z,2.10
2022-08-12T12:51:48.907Z,1.50
2022-08-12T12:54:10.077Z,1.25
2022-08-12T12:56:42.559Z,1.00
2022-08-12T12:59:55.570Z,1.00
2022-08-12T13:02:07.823Z,1.13
2022-08-12T13:04:37.812Z,1.42
2022-08-12T13:07:06.992Z,1.05
2022-08-12T13:09:36.374Z,1.10
2022-08-12T13:12:10.584Z,1.23
2022-08-12T13:14:40.015Z,0.85
2022-08-12T13:17:14.456Z,1.52
2022-08-12T13:19:48.277Z,1.30
2022-08-12T13:22:21.290Z,1.42
2022-08-12T13:24:52.214Z,1.27
2022-08-12T13:27:34.686Z,1.38
2022-08-12T13:30:10.633Z,1.50
2022-08-12T13:32:41.811Z,1.60
2022-08-12T13:35:19.775Z,1.35
2022-08-12T13:38:02.767Z,1.10
2022-08-12T13:40:33.656Z,1.10
2022-08-12T13:43:05.513Z,1.23
2022-08-12T13:45:35.614Z,1.20
2022-08-12T13:48:08.085Z,1.17
2022-08-12T13:50:38.915Z,1.30
2022-08-12T13:53:23.821Z,1.40
2022-08-12T13:56:01.627Z,1.48
2022-08-12T13:58:34.649Z,1.67
2022-08-12T14:01:06.366Z,1.30
2022-08-12T14:03:49.966Z,1.20
2022-08-12T14:06:20.820Z,1.63
2022-08-12T14:08:50.679Z,1.67
2022-08-12T14:11:25.084Z,1.60
2022-08-12T14:14:02.738Z,1.50
2022-08-12T14:16:46.755Z,1.30
2022-08-12T14:19:22.284Z,1.40
2022-08-12T14:22:00.828Z,1.33
2022-08-12T14:24:35.812Z,1.25
2022-08-12T14:27:08.870Z,1.05
2022-08-12T14:30:04.080Z,1.30
2022-08-12T14:32:27.262Z,1.00
2022-08-12T14:34:56.976Z,1.63
2022-08-12T14:37:56.444Z,2.30
2022-08-12T14:40:18.581Z,1.35
2022-08-12T14:42:47.432Z,1.35
2022-08-12T14:45:15.982Z,1.90
2022-08-12T14:47:53.732Z,1.48
2022-08-12T14:50:37.410Z,1.67
2022-08-12T14:59:20.317Z,1.90
2022-08-12T15:01:49.234Z,1.20
2022-08-12T15:04:29.134Z,1.70
2022-08-12T15:07:00.267Z,1.30
2022-08-12T15:09:29.613Z,1.38
2022-08-12T15:12:03.558Z,1.35
2022-08-12T15:14:32.533Z,1.35
2022-08-12T15:17:06.528Z,1.23
2022-08-12T15:20:11.769Z,1.23
2022-08-12T15:22:37.480Z,1.40
2022-08-12T15:25:09.041Z,1.30
2022-08-12T15:28:03.651Z,1.67
2022-08-12T15:30:33.775Z,1.23
2022-08-12T15:33:12.767Z,2.13
2022-08-12T15:35:53.192Z,3.45
2022-08-12T15:38:28.286Z,2.92
2022-08-12T15:40:59.078Z,2.03
2022-08-12T15:44:16.333Z,1.77
2022-08-12T15:46:21.304Z,1.70
2022-08-12T15:48:54.935Z,1.67
2022-08-12T15:51:57.297Z,1.95
2022-08-12T15:54:34.343Z,1.50
2022-08-12T15:57:08.067Z,1.88
2022-08-12T16:00:03.721Z,1.52
2022-08-12T16:02:29.313Z,1.77
2022-08-12T16:04:58.286Z,1.92
2022-08-12T16:07:40.839Z,1.95
2022-08-12T16:10:11.917Z,1.30
2022-08-12T16:12:55.177Z,1.67
2022-08-12T16:15:26.333Z,1.70
2022-08-12T16:18:14.459Z,1.67
2022-08-12T16:20:47.491Z,1.35
2022-08-12T16:23:27.020Z,1.63
2022-08-12T16:26:15.064Z,1.85
2022-08-12T16:28:44.205Z,1.52
2022-08-12T16:31:23.471Z,1.02
2022-08-12T16:33:59.262Z,1.38
2022-08-12T16:36:29.708Z,2.00
2022-08-12T16:39:01.412Z,1.42
2022-08-12T16:41:39.376Z,1.40
2022-08-12T16:44:09.217Z,1.88
2022-08-12T16:46:38.082Z,1.20
2022-08-12T16:49:08.818Z,1.50
2022-08-12T16:51:41.879Z,1.60
2022-08-12T16:54:15.961Z,1.48
2022-08-12T16:56:54.861Z,1.70
2022-08-12T16:59:30.796Z,1.30
2022-08-12T17:02:00.383Z,1.30
2022-08-12T17:04:29.227Z,1.20
2022-08-12T17:06:57.793Z,1.42
2022-08-12T17:09:26.392Z,1.30
2022-08-12T17:12:10.063Z,1.50
2022-08-12T17:14:38.349Z,1.48
2022-08-12T17:17:18.641Z,1.63
2022-08-12T17:20:35.410Z,1.73
2022-08-12T17:22:56.534Z,1.73
2022-08-12T17:25:25.921Z,1.50
2022-08-12T17:28:02.242Z,1.38
2022-08-12T17:30:32.247Z,2.33
2022-08-12T17:33:02.836Z,2.08
2022-08-12T17:35:37.362Z,2.03
2022-08-12T17:38:11.522Z,2.58
2022-08-12T17:40:41.120Z,1.95
2022-08-12T17:43:55.616Z,2.33
2022-08-12T17:46:02.263Z,2.75
2022-08-12T17:48:34.394Z,3.10
2022-08-12T17:51:15.728Z,2.20
2022-08-12T17:54:11.376Z,2.08
2022-08-12T17:56:37.391Z,2.30
2022-08-12T17:59:12.261Z,2.42
2022-08-12T18:01:45.703Z,2.45
2022-08-12T18:04:22.101Z,2.40
2022-08-12T18:06:52.454Z,2.10
2022-08-12T18:09:24.467Z,3.58
2022-08-12T18:12:13.067Z,2.10
2022-08-12T18:14:47.490Z,2.15
2022-08-12T18:17:18.024Z,2.35
2022-08-12T18:20:04.831Z,2.15
2022-08-12T18:22:35.185Z,2.33
2022-08-12T18:25:06.543Z,2.35
2022-08-12T18:27:47.170Z,2.00
2022-08-12T18:30:28.888Z,2.15
2022-08-12T18:33:03.670Z,2.00
2022-08-12T18:35:47.045Z,1.60
2022-08-12T18:38:22.403Z,2.55
2022-08-12T18:41:09.764Z,2.45
2022-08-12T18:43:58.571Z,2.15
2022-08-12T18:46:48.916Z,2.10
2022-08-12T18:49:29.638Z,1.70
2022-08-12T18:52:04.279Z,2.05
2022-08-12T18:54:49.773Z,2.00
2022-08-12T18:57:46.101Z,2.08
2022-08-12T19:00:21.324Z,1.90
2022-08-12T19:02:53.825Z,1.92
2022-08-12T19:05:25.473Z,2.65
2022-08-12T19:08:13.672Z,2.38
2022-08-12T19:10:50.004Z,2.78
2022-08-12T19:13:37.068Z,2.35
2022-08-12T19:16:10.868Z,2.42
2022-08-12T19:18:44.756Z,3.05
2022-08-12T19:21:16.721Z,2.78
2022-08-12T19:24:08.501Z,2.38
2022-08-12T19:26:36.671Z,2.28
2022-08-12T19:29:08.240Z,2.47
2022-08-12T19:31:44.740Z,2.50
2022-08-12T19:37:26.870Z,2.78
2022-08-12T19:40:09.601Z,1.70
2022-08-12T19:42:54.210Z,2.20
2022-08-12T19:45:43.516Z,2.20
2022-08-12T19:48:18.736Z,2.42
2022-08-12T19:50:52.132Z,2.10
2022-08-12T19:53:22.918Z,2.70
2022-08-12T19:55:53.346Z,2.22
2022-08-12T19:58:23.136Z,2.33
2022-08-12T20:00:55.831Z,2.20
2022-08-12T20:03:39.561Z,2.28
2022-08-12T20:06:13.796Z,2.28
2022-08-12T20:08:48.731Z,2.10
2022-08-12T20:12:13.269Z,2.22
2022-08-12T20:14:09.990Z,1.88
2022-08-12T20:16:57.273Z,2.30
2022-08-12T20:19:52.501Z,2.20
2022-08-12T20:22:24.143Z,1.90
2022-08-12T20:25:01.465Z,1.77
2022-08-12T20:28:03.355Z,2.25
2022-08-12T20:30:52.513Z,2.13
2022-08-12T20:33:18.456Z,1.52
2022-08-12T20:36:13.783Z,1.95
2022-08-12T20:38:45.823Z,1.63
2022-08-12T20:41:16.790Z,2.03
2022-08-12T20:43:49.362Z,1.80
2022-08-12T20:46:19.135Z,1.83
2022-08-12T20:48:54.859Z,2.03
2022-08-12T20:51:23.682Z,1.90
2022-08-12T20:53:59.647Z,1.70
2022-08-12T20:56:33.534Z,1.60
2022-08-12T20:59:05.472Z,2.28
2022-08-12T21:01:46.651Z,1.45
2022-08-12T21:04:36.606Z,1.85
2022-08-12T21:07:09.592Z,1.40
2022-08-12T21:09:42.778Z,1.83
2022-08-12T21:12:31.230Z,2.80
2022-08-12T21:15:16.567Z,2.75
2022-08-12T21:18:09.837Z,1.73
2022-08-12T21:20:35.279Z,1.75
2022-08-12T21:23:05.814Z,1.80
2022-08-12T21:25:45.288Z,1.85
2022-08-12T21:28:14.526Z,2.10
2022-08-12T21:30:54.898Z,1.60
2022-08-12T21:33:32.146Z,2.17
2022-08-12T21:36:22.921Z,2.05
2022-08-12T21:39:18.207Z,1.77
2022-08-12T21:41:50.953Z,1.63
2022-08-12T21:44:23.940Z,2.00
2022-08-12T21:47:19.771Z,1.42
2022-08-12T21:50:06.144Z,1.70
2022-08-12T21:52:36.950Z,1.75
2022-08-12T21:55:18.494Z,1.40
2022-08-12T21:57:54.910Z,1.50
2022-08-12T22:00:35.125Z,1.70
2022-08-12T22:03:25.106Z,1.52
2022-08-12T22:06:31.481Z,1.70
2022-08-12T22:09:15.991Z,1.63
2022-08-12T22:11:49.048Z,1.60
2022-08-12T22:14:27.272Z,1.70
2022-08-12T22:16:56.527Z,2.17
2022-08-12T22:19:24.642Z,1.92
2022-08-12T22:21:55.540Z,1.67
2022-08-12T22:24:26.936Z,1.30
2022-08-12T22:26:57.883Z,1.65
2022-08-12T22:29:45.234Z,1.73
2022-08-12T22:32:15.804Z,1.92
2022-08-12T22:34:44.750Z,1.80
2022-08-12T22:37:20.169Z,1.48
2022-08-12T22:39:49.497Z,1.50
2022-08-12T22:42:41.541Z,1.50
2022-08-12T22:45:29.316Z,1.80
2022-08-12T22:47:58.728Z,1.50
2022-08-12T22:50:29.510Z,2.05
2022-08-12T22:53:16.175Z,1.88
2022-08-12T22:55:58.711Z,1.40
2022-08-12T22:58:38.468Z,1.40
2022-08-12T23:01:21.338Z,1.55
2022-08-12T23:04:00.477Z,1.63
2022-08-12T23:06:31.246Z,1.48
2022-08-12T23:08:59.504Z,1.50
2022-08-12T23:11:33.737Z,1.60
2022-08-12T23:14:08.791Z,1.63
2022-08-12T23:16:41.429Z,1.50
2022-08-12T23:19:17.561Z,2.10
2022-08-12T23:22:06.660Z,1.90
2022-08-12T23:24:41.205Z,1.60
2022-08-12T23:27:50.119Z,1.90
2022-08-12T23:30:24.654Z,1.35
2022-08-12T23:32:59.969Z,1.92
2022-08-12T23:35:53.517Z,1.70
2022-08-12T23:38:30.404Z,1.63
2022-08-12T23:41:01.196Z,1.40
2022-08-12T23:43:39.472Z,1.25
2022-08-12T23:46:10.295Z,1.80
2022-08-12T23:48:40.771Z,1.52
2022-08-12T23:51:22.793Z,1.50
2022-08-12T23:53:55.156Z,1.73
2022-08-12T23:56:24.776Z,1.58
2022-08-12T23:58:57.559Z,1.50
